Terminal Aerodrome Forecast
Issued by NWS

Home | Current Version | Previous Version | Text Only | Print | Product List | Glossary Off
Versions: 1 2 3 4 5 6 7 8 9 10 11 12 13 14 15 16 17 18 19

000
FTUS43 KUNR 030600 AAA
TAFGCC
TAF AMD
KGCC 030635Z 0307/0406 36018KT 1SM -SN BLSN OVC008
     FM030900 33017G27KT 2SM -SN BLSN OVC011
     FM031800 33014KT P6SM OVC015
     FM032000 33011KT P6SM OVC050=

USA.gov is the U.S. government's official web portal to all federal, state and local government web resources and services.